Malvina, Mississippi
Current Conditions -  °F | °C
As of 2:55 AM on Sunday 23 Nov 2014 (Local Time) from KRNV Reporting Station
Overcast Overcast  
Wind Chill: 14°   Ceiling: 1300
Heat Index: 14°   Visibility: 10mi
Dew Point: 13°   Wind: 8mph
Humidity: 92%   Direction: 120°ESE
Pressure: 29.8"   Gusts: NA
Location:  33.8277°N, 90.9559°W
Report Text: KRNV 230855Z AUTO 12007KT 10SM OVC013 14/13 A2980 RMK AO2 T01430131
Loading
Personal Weather Stations






























Interactive Weather Map New forecast layout! Learn more

10-Day Weather Forecast

Advertisements
Track Severe Weather on mobile